sensor_id;sensor_type;location;lat;lon;timestamp;pressure;altitude;pressure_sealevel;temperature;humidity
40570;BME280;26270;34.428;-119.710;2023-02-18T00:01:28;101071.09;;;20.38;19.94
40570;BME280;26270;34.428;-119.710;2023-02-18T00:03:56;101071.91;;;20.15;20.40
40570;BME280;26270;34.428;-119.710;2023-02-18T00:06:27;101074.10;;;19.99;20.65
40570;BME280;26270;34.428;-119.710;2023-02-18T00:08:55;101074.67;;;19.83;20.72
40570;BME280;26270;34.428;-119.710;2023-02-18T00:11:24;101076.18;;;19.70;20.26
40570;BME280;26270;34.428;-119.710;2023-02-18T00:13:55;101077.23;;;19.73;20.60
40570;BME280;26270;34.428;-119.710;2023-02-18T00:16:25;101079.05;;;19.85;20.35
40570;BME280;26270;34.428;-119.710;2023-02-18T00:18:55;101075.05;;;19.68;20.20
40570;BME280;26270;34.428;-119.710;2023-02-18T00:21:24;101072.17;;;19.90;19.65
40570;BME280;26270;34.428;-119.710;2023-02-18T00:23:52;101072.87;;;20.08;19.68
40570;BME280;26270;34.428;-119.710;2023-02-18T00:26:20;101071.79;;;19.94;19.54
40570;BME280;26270;34.428;-119.710;2023-02-18T00:28:49;101067.63;;;19.89;19.67
40570;BME280;26270;34.428;-119.710;2023-02-18T00:31:20;101065.50;;;19.85;19.80
40570;BME280;26270;34.428;-119.710;2023-02-18T00:33:48;101063.85;;;19.89;19.80
40570;BME280;26270;34.428;-119.710;2023-02-18T00:36:18;101065.21;;;19.97;19.98
40570;BME280;26270;34.428;-119.710;2023-02-18T00:38:49;101068.58;;;19.92;19.43
40570;BME280;26270;34.428;-119.710;2023-02-18T00:41:18;101074.24;;;19.84;19.51
40570;BME280;26270;34.428;-119.710;2023-02-18T00:43:47;101077.69;;;19.59;20.25
40570;BME280;26270;34.428;-119.710;2023-02-18T00:46:15;101076.91;;;19.47;20.41
40570;BME280;26270;34.428;-119.710;2023-02-18T00:48:43;101074.34;;;19.35;20.61
40570;BME280;26270;34.428;-119.710;2023-02-18T00:51:12;101076.05;;;19.19;21.12
40570;BME280;26270;34.428;-119.710;2023-02-18T00:53:40;101076.54;;;19.08;20.98
40570;BME280;26270;34.428;-119.710;2023-02-18T00:56:08;101083.10;;;18.94;21.06
40570;BME280;26270;34.428;-119.710;2023-02-18T00:58:37;101085.46;;;18.87;21.56
40570;BME280;26270;34.428;-119.710;2023-02-18T01:01:06;101086.05;;;19.00;22.11
40570;BME280;26270;34.428;-119.710;2023-02-18T01:03:36;101085.91;;;18.72;22.92
40570;BME280;26270;34.428;-119.710;2023-02-18T01:06:06;101088.79;;;18.75;23.43
40570;BME280;26270;34.428;-119.710;2023-02-18T01:08:35;101090.85;;;18.52;22.88
40570;BME280;26270;34.428;-119.710;2023-02-18T01:11:05;101094.99;;;18.35;22.86
40570;BME280;26270;34.428;-119.710;2023-02-18T01:13:34;101094.34;;;18.29;22.72
40570;BME280;26270;34.428;-119.710;2023-02-18T01:16:03;101097.76;;;18.30;22.27
40570;BME280;26270;34.428;-119.710;2023-02-18T01:18:31;101099.55;;;18.17;22.51
40570;BME280;26270;34.428;-119.710;2023-02-18T01:20:59;101099.04;;;17.91;23.01
40570;BME280;26270;34.428;-119.710;2023-02-18T01:23:28;101100.84;;;17.89;22.74
40570;BME280;26270;34.428;-119.710;2023-02-18T01:25:58;101102.51;;;17.79;21.82
40570;BME280;26270;34.428;-119.710;2023-02-18T01:28:26;101106.75;;;17.57;21.17
40570;BME280;26270;34.428;-119.710;2023-02-18T01:30:55;101109.89;;;17.47;21.90
40570;BME280;26270;34.428;-119.710;2023-02-18T01:33:23;101113.31;;;17.36;22.50
40570;BME280;26270;34.428;-119.710;2023-02-18T01:35:52;101114.14;;;17.31;23.03
40570;BME280;26270;34.428;-119.710;2023-02-18T01:38:20;101115.45;;;17.06;23.00
40570;BME280;26270;34.428;-119.710;2023-02-18T01:40:51;101116.90;;;17.11;23.93
40570;BME280;26270;34.428;-119.710;2023-02-18T01:43:20;101119.54;;;16.99;24.19
40570;BME280;26270;34.428;-119.710;2023-02-18T01:46:02;101119.62;;;16.79;23.34
40570;BME280;26270;34.428;-119.710;2023-02-18T01:48:34;101115.30;;;16.59;23.73
40570;BME280;26270;34.428;-119.710;2023-02-18T01:51:06;101119.97;;;16.67;24.13
40570;BME280;26270;34.428;-119.710;2023-02-18T01:53:39;101124.15;;;16.19;24.10
40570;BME280;26270;34.428;-119.710;2023-02-18T01:56:13;101124.04;;;16.09;25.14
40570;BME280;26270;34.428;-119.710;2023-02-18T01:58:43;101126.03;;;16.05;25.19
40570;BME280;26270;34.428;-119.710;2023-02-18T02:01:11;101131.75;;;16.12;25.77
40570;BME280;26270;34.428;-119.710;2023-02-18T02:03:40;101135.94;;;16.02;25.92
40570;BME280;26270;34.428;-119.710;2023-02-18T02:06:15;101136.07;;;15.72;26.80
40570;BME280;26270;34.428;-119.710;2023-02-18T02:08:44;101140.26;;;15.92;27.54
40570;BME280;26270;34.428;-119.710;2023-02-18T02:11:23;101140.20;;;15.84;28.26
40570;BME280;26270;34.428;-119.710;2023-02-18T02:14:07;101140.04;;;15.48;28.32
40570;BME280;26270;34.428;-119.710;2023-02-18T02:16:42;101137.82;;;15.72;27.61
40570;BME280;26270;34.428;-119.710;2023-02-18T02:19:41;101139.79;;;14.97;29.49
40570;BME280;26270;34.428;-119.710;2023-02-18T02:22:39;101140.65;;;14.54;30.27
40570;BME280;26270;34.428;-119.710;2023-02-18T02:25:23;101137.40;;;14.69;29.51
40570;BME280;26270;34.428;-119.710;2023-02-18T02:28:16;101141.11;;;15.08;29.08
40570;BME280;26270;34.428;-119.710;2023-02-18T02:31:24;101141.29;;;14.80;28.85
40570;BME280;26270;34.428;-119.710;2023-02-18T02:34:17;101144.33;;;14.99;29.55
40570;BME280;26270;34.428;-119.710;2023-02-18T02:36:49;101145.36;;;14.89;29.49
40570;BME280;26270;34.428;-119.710;2023-02-18T02:39:28;101150.33;;;15.06;29.86
40570;BME280;26270;34.428;-119.710;2023-02-18T02:42:03;101151.34;;;14.98;29.66
40570;BME280;26270;34.428;-119.710;2023-02-18T02:44:38;101152.87;;;14.94;29.65
40570;BME280;26270;34.428;-119.710;2023-02-18T02:47:16;101155.43;;;14.92;29.83
40570;BME280;26270;34.428;-119.710;2023-02-18T02:49:50;101155.51;;;14.86;29.73
40570;BME280;26270;34.428;-119.710;2023-02-18T02:52:25;101155.13;;;14.78;30.30
40570;BME280;26270;34.428;-119.710;2023-02-18T02:54:54;101156.23;;;14.80;29.83
40570;BME280;26270;34.428;-119.710;2023-02-18T02:57:55;101155.26;;;14.77;29.98
40570;BME280;26270;34.428;-119.710;2023-02-18T03:00:33;101157.98;;;14.65;30.33
40570;BME280;26270;34.428;-119.710;2023-02-18T03:03:21;101156.36;;;14.87;30.52
40570;BME280;26270;34.428;-119.710;2023-02-18T03:06:08;101159.42;;;14.87;30.85
40570;BME280;26270;34.428;-119.710;2023-02-18T03:08:46;101158.42;;;14.57;30.27
40570;BME280;26270;34.428;-119.710;2023-02-18T03:11:17;101158.88;;;14.58;30.53
40570;BME280;26270;34.428;-119.710;2023-02-18T03:13:56;101159.94;;;14.76;30.52
40570;BME280;26270;34.428;-119.710;2023-02-18T03:16:30;101161.80;;;14.63;30.80
40570;BME280;26270;34.428;-119.710;2023-02-18T03:19:07;101163.44;;;14.58;30.61
40570;BME280;26270;34.428;-119.710;2023-02-18T03:21:40;101163.76;;;14.56;30.81
40570;BME280;26270;34.428;-119.710;2023-02-18T03:24:14;101162.85;;;14.65;30.61
40570;BME280;26270;34.428;-119.710;2023-02-18T03:26:47;101164.93;;;14.46;30.62
40570;BME280;26270;34.428;-119.710;2023-02-18T03:29:18;101163.06;;;14.51;30.57
40570;BME280;26270;34.428;-119.710;2023-02-18T03:31:51;101162.11;;;14.65;30.62
40570;BME280;26270;34.428;-119.710;2023-02-18T03:34:25;101164.36;;;14.68;31.07
40570;BME280;26270;34.428;-119.710;2023-02-18T03:36:57;101167.58;;;14.69;31.09
40570;BME280;26270;34.428;-119.710;2023-02-18T03:39:28;101167.73;;;14.42;31.28
40570;BME280;26270;34.428;-119.710;2023-02-18T03:41:56;101170.54;;;14.63;31.27
40570;BME280;26270;34.428;-119.710;2023-02-18T03:44:25;101170.09;;;14.71;31.19
40570;BME280;26270;34.428;-119.710;2023-02-18T03:46:53;101171.59;;;14.25;32.08
40570;BME280;26270;34.428;-119.710;2023-02-18T03:49:22;101172.82;;;13.82;32.48
40570;BME280;26270;34.428;-119.710;2023-02-18T03:51:50;101172.36;;;14.01;32.11
40570;BME280;26270;34.428;-119.710;2023-02-18T03:54:19;101172.59;;;14.01;32.50
40570;BME280;26270;34.428;-119.710;2023-02-18T03:56:47;101174.00;;;14.11;32.18
40570;BME280;26270;34.428;-119.710;2023-02-18T03:59:15;101178.17;;;14.00;32.05
40570;BME280;26270;34.428;-119.710;2023-02-18T04:01:43;101181.41;;;13.99;31.85
40570;BME280;26270;34.428;-119.710;2023-02-18T04:04:10;101183.98;;;14.00;31.94
40570;BME280;26270;34.428;-119.710;2023-02-18T04:06:39;101186.74;;;13.93;31.96
40570;BME280;26270;34.428;-119.710;2023-02-18T04:09:07;101187.72;;;14.04;32.46
40570;BME280;26270;34.428;-119.710;2023-02-18T04:11:37;101189.02;;;13.81;32.19
40570;BME280;26270;34.428;-119.710;2023-02-18T04:14:06;101192.70;;;13.95;31.65
40570;BME280;26270;34.428;-119.710;2023-02-18T04:16:34;101196.46;;;13.94;32.31
40570;BME280;26270;34.428;-119.710;2023-02-18T04:19:02;101200.30;;;14.05;32.24
40570;BME280;26270;34.428;-119.710;2023-02-18T04:21:31;101203.96;;;13.86;32.65
40570;BME280;26270;34.428;-119.710;2023-02-18T04:23:59;101203.61;;;13.96;32.88
40570;BME280;26270;34.428;-119.710;2023-02-18T04:26:28;101203.62;;;14.01;32.97
40570;BME280;26270;34.428;-119.710;2023-02-18T04:28:56;101202.72;;;14.01;32.88
40570;BME280;26270;34.428;-119.710;2023-02-18T04:31:23;101200.98;;;13.90;32.84
40570;BME280;26270;34.428;-119.710;2023-02-18T04:33:51;101202.10;;;13.90;33.02
40570;BME280;26270;34.428;-119.710;2023-02-18T04:36:19;101199.87;;;14.01;32.87
40570;BME280;26270;34.428;-119.710;2023-02-18T04:38:47;101200.00;;;14.05;32.92
40570;BME280;26270;34.428;-119.710;2023-02-18T04:41:15;101199.53;;;14.00;33.09
40570;BME280;26270;34.428;-119.710;2023-02-18T04:43:43;101198.94;;;13.92;33.35
40570;BME280;26270;34.428;-119.710;2023-02-18T04:46:11;101204.89;;;13.79;33.20
40570;BME280;26270;34.428;-119.710;2023-02-18T04:48:40;101206.08;;;13.67;33.29
40570;BME280;26270;34.428;-119.710;2023-02-18T04:51:08;101207.09;;;13.79;33.20
40570;BME280;26270;34.428;-119.710;2023-02-18T04:53:36;101210.91;;;13.73;33.43
40570;BME280;26270;34.428;-119.710;2023-02-18T04:56:05;101214.01;;;13.73;33.44
40570;BME280;26270;34.428;-119.710;2023-02-18T04:58:34;101212.09;;;13.85;33.43
40570;BME280;26270;34.428;-119.710;2023-02-18T05:03:19;101218.71;;;13.85;33.46
40570;BME280;26270;34.428;-119.710;2023-02-18T05:05:47;101224.53;;;13.95;33.14
40570;BME280;26270;34.428;-119.710;2023-02-18T05:08:15;101225.88;;;13.69;33.78
40570;BME280;26270;34.428;-119.710;2023-02-18T05:10:43;101227.39;;;13.83;34.01
40570;BME280;26270;34.428;-119.710;2023-02-18T05:13:11;101227.11;;;13.64;33.84
40570;BME280;26270;34.428;-119.710;2023-02-18T05:15:38;101228.81;;;13.67;33.70
40570;BME280;26270;34.428;-119.710;2023-02-18T05:18:06;101228.19;;;13.74;33.38
40570;BME280;26270;34.428;-119.710;2023-02-18T05:20:34;101229.65;;;13.69;33.43
40570;BME280;26270;34.428;-119.710;2023-02-18T05:23:02;101235.92;;;13.45;33.53
40570;BME280;26270;34.428;-119.710;2023-02-18T05:25:30;101236.31;;;13.50;33.90
40570;BME280;26270;34.428;-119.710;2023-02-18T05:27:58;101240.71;;;13.51;33.54
40570;BME280;26270;34.428;-119.710;2023-02-18T05:30:26;101241.33;;;13.57;33.96
40570;BME280;26270;34.428;-119.710;2023-02-18T05:32:54;101241.15;;;13.59;33.66
40570;BME280;26270;34.428;-119.710;2023-02-18T05:35:22;101240.61;;;13.24;34.06
40570;BME280;26270;34.428;-119.710;2023-02-18T05:37:50;101241.89;;;13.19;35.08
40570;BME280;26270;34.428;-119.710;2023-02-18T05:40:18;101245.15;;;12.93;35.27
40570;BME280;26270;34.428;-119.710;2023-02-18T05:42:46;101250.98;;;12.81;35.02
40570;BME280;26270;34.428;-119.710;2023-02-18T05:45:14;101251.86;;;12.92;35.12
40570;BME280;26270;34.428;-119.710;2023-02-18T05:47:43;101247.02;;;13.17;34.57
40570;BME280;26270;34.428;-119.710;2023-02-18T05:50:11;101251.15;;;13.04;34.50
40570;BME280;26270;34.428;-119.710;2023-02-18T05:52:39;101247.96;;;13.20;34.81
40570;BME280;26270;34.428;-119.710;2023-02-18T05:55:07;101252.10;;;13.21;34.29
40570;BME280;26270;34.428;-119.710;2023-02-18T05:57:35;101250.82;;;13.26;34.22
40570;BME280;26270;34.428;-119.710;2023-02-18T06:00:04;101254.15;;;13.13;33.99
40570;BME280;26270;34.428;-119.710;2023-02-18T06:02:33;101256.37;;;13.21;34.07
40570;BME280;26270;34.428;-119.710;2023-02-18T06:05:00;101260.40;;;13.21;33.76
40570;BME280;26270;34.428;-119.710;2023-02-18T06:07:28;101263.25;;;13.20;34.52
40570;BME280;26270;34.428;-119.710;2023-02-18T06:09:56;101263.31;;;13.03;34.50
40570;BME280;26270;34.428;-119.710;2023-02-18T06:12:24;101263.31;;;13.00;34.74
40570;BME280;26270;34.428;-119.710;2023-02-18T06:14:52;101264.22;;;13.09;34.84
40570;BME280;26270;34.428;-119.710;2023-02-18T06:17:20;101263.21;;;13.18;34.49
40570;BME280;26270;34.428;-119.710;2023-02-18T06:19:49;101259.41;;;13.05;35.32
40570;BME280;26270;34.428;-119.710;2023-02-18T06:22:17;101260.23;;;13.01;35.70
40570;BME280;26270;34.428;-119.710;2023-02-18T06:24:44;101266.26;;;13.08;35.59
40570;BME280;26270;34.428;-119.710;2023-02-18T06:27:13;101261.33;;;13.07;35.46
40570;BME280;26270;34.428;-119.710;2023-02-18T06:29:41;101257.71;;;12.84;35.56
40570;BME280;26270;34.428;-119.710;2023-02-18T06:32:10;101261.79;;;12.88;35.36
40570;BME280;26270;34.428;-119.710;2023-02-18T06:34:37;101256.86;;;12.93;35.05
40570;BME280;26270;34.428;-119.710;2023-02-18T06:37:06;101258.53;;;12.79;35.32
40570;BME280;26270;34.428;-119.710;2023-02-18T06:39:34;101260.40;;;12.69;35.36
40570;BME280;26270;34.428;-119.710;2023-02-18T06:42:01;101261.16;;;12.59;35.17
40570;BME280;26270;34.428;-119.710;2023-02-18T06:44:29;101266.70;;;12.62;35.52
40570;BME280;26270;34.428;-119.710;2023-02-18T06:46:56;101266.36;;;12.67;35.34
40570;BME280;26270;34.428;-119.710;2023-02-18T06:49:25;101267.74;;;12.79;35.26
40570;BME280;26270;34.428;-119.710;2023-02-18T06:51:53;101268.27;;;12.56;34.93
40570;BME280;26270;34.428;-119.710;2023-02-18T06:54:21;101270.04;;;12.43;35.06
40570;BME280;26270;34.428;-119.710;2023-02-18T06:56:49;101266.85;;;12.43;35.19
40570;BME280;26270;34.428;-119.710;2023-02-18T06:59:17;101270.90;;;12.50;35.90
40570;BME280;26270;34.428;-119.710;2023-02-18T07:01:44;101268.63;;;12.23;35.32
40570;BME280;26270;34.428;-119.710;2023-02-18T07:04:12;101267.43;;;12.07;35.60
40570;BME280;26270;34.428;-119.710;2023-02-18T07:06:39;101270.28;;;12.23;35.27
40570;BME280;26270;34.428;-119.710;2023-02-18T07:09:07;101265.69;;;12.30;35.08
40570;BME280;26270;34.428;-119.710;2023-02-18T07:11:36;101266.78;;;11.95;35.66
40570;BME280;26270;34.428;-119.710;2023-02-18T07:14:04;101265.59;;;12.21;35.78
40570;BME280;26270;34.428;-119.710;2023-02-18T07:16:32;101268.16;;;12.08;36.39
40570;BME280;26270;34.428;-119.710;2023-02-18T07:18:59;101269.80;;;12.14;36.86
40570;BME280;26270;34.428;-119.710;2023-02-18T07:21:27;101270.63;;;12.21;36.85
40570;BME280;26270;34.428;-119.710;2023-02-18T07:23:55;101271.59;;;12.15;37.51
40570;BME280;26270;34.428;-119.710;2023-02-18T07:26:22;101268.34;;;12.14;37.95
40570;BME280;26270;34.428;-119.710;2023-02-18T07:28:50;101268.99;;;12.15;38.08
40570;BME280;26270;34.428;-119.710;2023-02-18T07:31:18;101268.79;;;12.03;38.49
40570;BME280;26270;34.428;-119.710;2023-02-18T07:33:47;101273.01;;;12.08;38.25
40570;BME280;26270;34.428;-119.710;2023-02-18T07:36:15;101275.94;;;12.22;38.51
40570;BME280;26270;34.428;-119.710;2023-02-18T07:38:43;101277.13;;;12.29;38.20
40570;BME280;26270;34.428;-119.710;2023-02-18T07:41:16;101278.16;;;12.18;38.37
40570;BME280;26270;34.428;-119.710;2023-02-18T07:43:45;101277.68;;;12.03;38.47
40570;BME280;26270;34.428;-119.710;2023-02-18T07:46:13;101270.27;;;11.72;38.98
40570;BME280;26270;34.428;-119.710;2023-02-18T07:48:41;101265.77;;;11.39;38.17
40570;BME280;26270;34.428;-119.710;2023-02-18T07:51:11;101262.41;;;11.43;38.06
40570;BME280;26270;34.428;-119.710;2023-02-18T07:53:39;101256.94;;;11.36;37.86
40570;BME280;26270;34.428;-119.710;2023-02-18T07:56:08;101255.68;;;11.89;37.51
40570;BME280;26270;34.428;-119.710;2023-02-18T07:58:37;101259.82;;;11.71;38.09
40570;BME280;26270;34.428;-119.710;2023-02-18T08:01:06;101256.07;;;11.69;38.26
40570;BME280;26270;34.428;-119.710;2023-02-18T08:03:34;101253.04;;;11.74;38.53
40570;BME280;26270;34.428;-119.710;2023-02-18T08:06:04;101253.88;;;11.83;38.50
40570;BME280;26270;34.428;-119.710;2023-02-18T08:08:33;101245.48;;;11.95;38.39
40570;BME280;26270;34.428;-119.710;2023-02-18T08:11:02;101243.63;;;11.87;38.13
40570;BME280;26270;34.428;-119.710;2023-02-18T08:13:30;101245.09;;;11.73;37.90
40570;BME280;26270;34.428;-119.710;2023-02-18T08:15:58;101246.73;;;11.75;36.71
40570;BME280;26270;34.428;-119.710;2023-02-18T08:18:26;101245.47;;;11.72;37.35
40570;BME280;26270;34.428;-119.710;2023-02-18T08:20:54;101246.98;;;11.72;37.35
40570;BME280;26270;34.428;-119.710;2023-02-18T08:23:22;101248.37;;;11.80;36.60
40570;BME280;26270;34.428;-119.710;2023-02-18T08:25:51;101249.97;;;11.82;36.57
40570;BME280;26270;34.428;-119.710;2023-02-18T08:28:22;101248.04;;;11.51;37.37
40570;BME280;26270;34.428;-119.710;2023-02-18T08:30:51;101247.15;;;11.45;37.44
40570;BME280;26270;34.428;-119.710;2023-02-18T08:33:20;101242.06;;;11.62;36.37
40570;BME280;26270;34.428;-119.710;2023-02-18T08:35:51;101245.52;;;11.68;35.54
40570;BME280;26270;34.428;-119.710;2023-02-18T08:38:21;101248.58;;;11.59;35.01
40570;BME280;26270;34.428;-119.710;2023-02-18T08:40:50;101246.56;;;11.45;35.33
40570;BME280;26270;34.428;-119.710;2023-02-18T08:43:18;101245.64;;;11.55;34.95
40570;BME280;26270;34.428;-119.710;2023-02-18T08:45:46;101254.47;;;11.52;34.68
40570;BME280;26270;34.428;-119.710;2023-02-18T08:48:14;101251.39;;;11.57;34.81
40570;BME280;26270;34.428;-119.710;2023-02-18T08:50:43;101248.17;;;11.49;34.98
40570;BME280;26270;34.428;-119.710;2023-02-18T08:53:11;101250.72;;;11.43;34.69
40570;BME280;26270;34.428;-119.710;2023-02-18T08:55:40;101243.69;;;11.49;34.41
40570;BME280;26270;34.428;-119.710;2023-02-18T08:58:08;101242.92;;;11.31;34.14
40570;BME280;26270;34.428;-119.710;2023-02-18T09:00:36;101241.35;;;11.28;34.64
40570;BME280;26270;34.428;-119.710;2023-02-18T09:03:04;101245.04;;;11.20;34.87
40570;BME280;26270;34.428;-119.710;2023-02-18T09:05:32;101248.46;;;11.16;34.92
40570;BME280;26270;34.428;-119.710;2023-02-18T09:08:00;101252.77;;;11.03;35.55
40570;BME280;26270;34.428;-119.710;2023-02-18T09:10:28;101256.19;;;11.08;35.73
40570;BME280;26270;34.428;-119.710;2023-02-18T09:12:56;101256.40;;;11.17;35.68
40570;BME280;26270;34.428;-119.710;2023-02-18T09:15:24;101252.93;;;11.17;35.24
40570;BME280;26270;34.428;-119.710;2023-02-18T09:17:51;101253.51;;;10.95;35.90
40570;BME280;26270;34.428;-119.710;2023-02-18T09:20:19;101249.93;;;10.93;35.91
40570;BME280;26270;34.428;-119.710;2023-02-18T09:22:47;101246.94;;;10.81;36.23
40570;BME280;26270;34.428;-119.710;2023-02-18T09:25:15;101247.17;;;10.85;36.48
40570;BME280;26270;34.428;-119.710;2023-02-18T09:27:44;101243.58;;;10.87;36.87
40570;BME280;26270;34.428;-119.710;2023-02-18T09:30:12;101245.94;;;10.66;37.08
40570;BME280;26270;34.428;-119.710;2023-02-18T09:32:40;101247.39;;;10.76;37.27
40570;BME280;26270;34.428;-119.710;2023-02-18T09:35:08;101246.05;;;10.69;37.35
40570;BME280;26270;34.428;-119.710;2023-02-18T09:37:36;101245.11;;;10.63;37.16
40570;BME280;26270;34.428;-119.710;2023-02-18T09:40:05;101244.52;;;10.49;37.74
40570;BME280;26270;34.428;-119.710;2023-02-18T09:42:34;101240.62;;;10.59;36.72
40570;BME280;26270;34.428;-119.710;2023-02-18T09:45:05;101236.09;;;10.53;36.86
40570;BME280;26270;34.428;-119.710;2023-02-18T09:47:36;101234.41;;;10.60;37.20
40570;BME280;26270;34.428;-119.710;2023-02-18T09:50:11;101241.79;;;10.31;36.81
40570;BME280;26270;34.428;-119.710;2023-02-18T09:52:41;101239.55;;;10.40;36.38
40570;BME280;26270;34.428;-119.710;2023-02-18T09:55:28;101237.98;;;10.13;36.37
40570;BME280;26270;34.428;-119.710;2023-02-18T09:57:59;101232.19;;;10.15;36.65
40570;BME280;26270;34.428;-119.710;2023-02-18T10:00:31;101231.99;;;10.27;36.44
40570;BME280;26270;34.428;-119.710;2023-02-18T10:03:04;101237.17;;;10.18;35.81
40570;BME280;26270;34.428;-119.710;2023-02-18T10:05:35;101239.43;;;10.18;36.09
40570;BME280;26270;34.428;-119.710;2023-02-18T10:08:06;101241.30;;;10.15;36.67
40570;BME280;26270;34.428;-119.710;2023-02-18T10:10:43;101239.14;;;10.25;36.42
40570;BME280;26270;34.428;-119.710;2023-02-18T10:13:14;101234.26;;;9.87;36.76
40570;BME280;26270;34.428;-119.710;2023-02-18T10:15:43;101231.21;;;9.59;36.84
40570;BME280;26270;34.428;-119.710;2023-02-18T10:18:21;101229.13;;;10.10;36.38
40570;BME280;26270;34.428;-119.710;2023-02-18T10:20:51;101225.87;;;9.88;36.50
